Terminal Aerodrome Forecast
Issued by NWS

Home | Current Version | Previous Version | Text Only | Print | Product List | Glossary On
Versions: 1 2 3 4 5 6 7 8 9 10 11 12 13 14 15 16 17 18
000
FTUS44 KLZK 012300 RRA
TAFHRO
TAF
KHRO 012348Z 0200/0224 18008KT P6SM OVC250
     FM020700 22010KT P6SM VCTS BKN060CB BKN150
     FM021200 23012KT P6SM BKN060 BKN100
     FM022000 28012G18KT P6SM VCSH SCT060 BKN100=

USA.gov is the U.S. government's official web portal to all federal, state and local government web resources and services.